Time;durP1;ratioP1;P1;durP2;ratioP2;P2;SDS_P1;SDS_P2;PMS_P1;PMS_P2;Temp;Humidity;BMP_temperature;BMP_pressure;BME280_temperature;BME280_humidity;BME280_pressure;Samples;Min_cycle;Max_cycle;Signal;HPM_P1;HPM_P2
2023/05/05 00:01:13;;;;;;;13.80;11.07;;;9.40;67.50;;;;;;4960670;28;20645;-87
2023/05/05 00:03:40;;;;;;;13.07;11.87;;;9.30;67.20;;;;;;4977660;28;20242;-87
2023/05/05 00:06:06;;;;;;;22.40;20.33;;;9.30;66.80;;;;;;4960360;28;20181;-87
2023/05/05 00:08:32;;;;;;;22.27;20.43;;;9.30;66.90;;;;;;4960305;28;20227;-87
2023/05/05 00:10:58;;;;;;;23.00;20.90;;;9.30;67.10;;;;;;4960202;28;20226;-87
2023/05/05 00:13:23;;;;;;;23.37;21.57;;;9.30;67.10;;;;;;4960138;28;20745;-88
2023/05/05 00:15:50;;;;;;;12.30;11.40;;;9.20;67.00;;;;;;4960261;28;20665;-87
2023/05/05 00:18:17;;;;;;;12.03;11.00;;;9.20;66.70;;;;;;4960508;28;20183;-89
2023/05/05 00:20:43;;;;;;;20.67;18.50;;;9.30;66.70;;;;;;4960104;28;20715;-89
2023/05/05 00:23:09;;;;;;;22.33;20.30;;;9.20;66.80;;;;;;4959973;28;20595;-88
2023/05/05 00:25:34;;;;;;;21.93;19.87;;;9.20;66.90;;;;;;4959925;28;20237;-88
2023/05/05 00:28:01;;;;;;;22.27;20.47;;;9.20;67.00;;;;;;4959829;28;20202;-89
2023/05/05 00:30:26;;;;;;;12.00;11.17;;;9.10;67.20;;;;;;4959968;28;20191;-88
2023/05/05 00:32:53;;;;;;;11.97;10.87;;;9.10;67.40;;;;;;4977027;28;20536;-89
2023/05/05 00:35:18;;;;;;;11.60;10.70;;;9.00;67.20;;;;;;4977124;28;20174;-89
2023/05/05 00:37:44;;;;;;;21.90;20.40;;;9.00;67.70;;;;;;4959763;28;20189;-89
2023/05/05 00:40:10;;;;;;;22.37;20.67;;;8.80;68.00;;;;;;4977086;28;20205;-89
2023/05/05 00:42:40;;;;;;;21.43;19.90;;;8.90;67.90;;;;;;4977338;28;20174;-89
2023/05/05 00:45:06;;;;;;;22.53;21.03;;;8.80;67.90;;;;;;4976951;28;20193;-89
2023/05/05 00:47:32;;;;;;;12.00;10.87;;;8.80;68.20;;;;;;4959699;28;20657;-88
2023/05/05 00:49:57;;;;;;;11.40;10.40;;;8.70;68.10;;;;;;4959522;28;20199;-89
2023/05/05 00:52:23;;;;;;;21.97;20.40;;;8.70;68.50;;;;;;4977277;28;20178;-88
2023/05/05 00:54:49;;;;;;;20.67;19.27;;;8.70;68.40;;;;;;4959552;28;20556;-88
2023/05/05 00:57:15;;;;;;;21.83;20.17;;;8.60;68.40;;;;;;4959371;28;20191;-88
2023/05/05 00:59:42;;;;;;;20.90;19.33;;;8.60;68.40;;;;;;4976740;28;20186;-89
2023/05/05 01:02:08;;;;;;;12.97;11.83;;;8.70;68.30;;;;;;4976874;28;20237;-89
2023/05/05 01:04:34;;;;;;;11.83;10.63;;;8.60;68.50;;;;;;4976595;28;20178;-87
2023/05/05 01:07:16;;;;;;;17.63;16.13;;;8.60;69.00;;;;;;4959211;28;20189;-89
2023/05/05 01:09:51;;;;;;;21.03;19.53;;;8.50;69.10;;;;;;4976487;28;20277;-88
2023/05/05 01:12:40;;;;;;;21.90;20.43;;;8.50;68.90;;;;;;4959885;28;20166;-88
2023/05/05 01:15:29;;;;;;;22.07;20.37;;;8.40;69.10;;;;;;4959590;28;20633;-88
2023/05/05 01:18:02;;;;;;;11.43;10.30;;;8.40;69.20;;;;;;4959145;28;20645;-88
2023/05/05 01:20:37;;;;;;;11.50;10.43;;;8.30;69.60;;;;;;4959122;28;20206;-88
2023/05/05 01:23:06;;;;;;;20.90;19.33;;;8.30;69.60;;;;;;4959255;28;20171;-88
2023/05/05 01:25:43;;;;;;;21.60;19.87;;;8.40;69.00;;;;;;4958835;28;20182;-88
2023/05/05 01:28:49;;;;;;;21.67;19.73;;;8.40;69.30;;;;;;4958829;28;20692;-88
2023/05/05 01:31:50;;;;;;;21.23;19.57;;;8.30;69.60;;;;;;4976140;28;20282;-88
2023/05/05 01:34:26;;;;;;;13.20;9.70;;;8.30;69.80;;;;;;4962421;28;20155;-88
2023/05/05 01:37:08;;;;;;;12.10;9.70;;;8.30;70.00;;;;;;4959195;28;20170;-88
2023/05/05 01:39:35;;;;;;;20.37;18.60;;;8.20;70.10;;;;;;4958702;28;20241;-88
2023/05/05 01:42:06;;;;;;;21.27;19.67;;;8.30;69.80;;;;;;4958649;28;20555;-88
2023/05/05 01:44:33;;;;;;;20.70;19.10;;;8.30;70.20;;;;;;4975292;28;20163;-88
2023/05/05 01:47:01;;;;;;;22.37;20.40;;;8.30;70.20;;;;;;4958746;28;20273;-88
2023/05/05 01:49:27;;;;;;;10.53;9.43;;;8.30;70.10;;;;;;4958782;28;20217;-88
2023/05/05 01:51:55;;;;;;;10.07;9.30;;;8.30;70.40;;;;;;4958630;28;20275;-88
2023/05/05 01:54:23;;;;;;;19.53;17.90;;;8.30;70.50;;;;;;4958727;28;20273;-87
2023/05/05 01:56:51;;;;;;;21.87;20.17;;;8.30;70.40;;;;;;4975592;28;20206;-88
2023/05/05 01:59:19;;;;;;;20.47;18.87;;;8.30;70.40;;;;;;4975866;28;20226;-87
2023/05/05 02:01:46;;;;;;;20.43;18.63;;;8.30;70.80;;;;;;4975410;28;20560;-88
2023/05/05 02:04:13;;;;;;;10.53;9.43;;;8.20;71.10;;;;;;4958358;28;20202;-88
2023/05/05 02:06:39;;;;;;;11.07;9.90;;;8.20;71.40;;;;;;4958473;28;20266;-88
2023/05/05 02:09:07;;;;;;;20.23;18.60;;;8.10;71.70;;;;;;4958153;28;20740;-88
2023/05/05 02:11:33;;;;;;;22.93;20.83;;;8.10;71.90;;;;;;4958402;28;20276;-88
2023/05/05 02:14:00;;;;;;;23.27;21.10;;;8.10;71.80;;;;;;4958048;28;20669;-88
2023/05/05 02:16:26;;;;;;;23.00;21.20;;;8.00;72.10;;;;;;4975210;28;20203;-88
2023/05/05 02:18:53;;;;;;;15.20;10.73;;;8.00;72.30;;;;;;4957906;28;20179;-88
2023/05/05 02:21:19;;;;;;;13.53;11.90;;;8.00;72.20;;;;;;4957897;28;20198;-88
2023/05/05 02:23:50;;;;;;;17.20;11.63;;;8.00;72.50;;;;;;4975200;28;20186;-88
2023/05/05 02:26:18;;;;;;;23.10;21.10;;;7.90;72.80;;;;;;4975165;28;20163;-88
2023/05/05 02:28:49;;;;;;;23.07;21.07;;;7.90;72.80;;;;;;4957750;28;20206;-88
2023/05/05 02:31:16;;;;;;;21.57;19.80;;;7.90;73.00;;;;;;4957561;28;20685;-88
2023/05/05 02:33:44;;;;;;;23.57;21.50;;;7.90;73.10;;;;;;4975015;28;20205;-87
2023/05/05 02:36:22;;;;;;;10.13;8.77;;;7.90;73.10;;;;;;4957661;28;20183;-87
2023/05/05 02:38:53;;;;;;;12.67;9.80;;;7.90;73.50;;;;;;4975107;28;20645;-88
2023/05/05 02:41:20;;;;;;;28.83;20.90;;;7.80;73.70;;;;;;4975169;28;20233;-88
2023/05/05 02:43:48;;;;;;;20.67;18.97;;;7.90;73.60;;;;;;4958049;28;20229;-88
2023/05/05 02:46:14;;;;;;;19.97;18.60;;;7.90;73.90;;;;;;4975114;28;20545;-88
2023/05/05 02:48:40;;;;;;;20.43;18.67;;;7.80;74.10;;;;;;4957412;28;20633;-88
2023/05/05 02:51:06;;;;;;;10.33;8.33;;;7.80;74.20;;;;;;4957780;28;20215;-88
2023/05/05 02:53:32;;;;;;;10.33;8.80;;;7.70;74.60;;;;;;4974862;28;20182;-88
2023/05/05 02:56:25;;;;;;;20.57;18.67;;;7.80;74.50;;;;;;4957561;28;20182;-88
2023/05/05 02:58:55;;;;;;;19.23;17.43;;;7.80;74.70;;;;;;4974672;28;20622;-89
2023/05/05 03:01:28;;;;;;;18.83;16.97;;;7.90;74.50;;;;;;4958157;28;20528;-88
2023/05/05 03:04:06;;;;;;;18.80;16.97;;;7.80;74.90;;;;;;4957314;28;20589;-88
2023/05/05 03:06:39;;;;;;;8.93;8.17;;;7.80;75.00;;;;;;4957239;28;20182;-88
2023/05/05 03:09:13;;;;;;;9.97;7.57;;;7.70;75.20;;;;;;4957274;28;20206;-88
2023/05/05 03:12:00;;;;;;;18.03;16.43;;;7.80;75.30;;;;;;4957200;28;20203;-87
2023/05/05 03:14:29;;;;;;;18.43;17.13;;;7.70;75.50;;;;;;4957159;28;20170;-88
2023/05/05 03:16:55;;;;;;;16.83;15.43;;;7.70;75.70;;;;;;4974815;28;20179;-88
2023/05/05 03:19:23;;;;;;;18.33;16.40;;;7.70;76.10;;;;;;4957178;28;20226;-88
2023/05/05 03:21:49;;;;;;;10.70;7.57;;;7.60;76.40;;;;;;4957089;28;20206;-88
2023/05/05 03:24:16;;;;;;;8.63;7.20;;;7.60;76.70;;;;;;4974337;28;20183;-87
2023/05/05 03:26:43;;;;;;;17.47;15.83;;;7.70;76.60;;;;;;4957804;28;20186;-87
2023/05/05 03:29:08;;;;;;;17.67;16.20;;;7.70;76.70;;;;;;4957302;28;20244;-88
2023/05/05 03:31:35;;;;;;;19.00;17.00;;;7.70;77.00;;;;;;4957069;28;20225;-88
2023/05/05 03:34:00;;;;;;;19.00;17.00;;;7.60;77.20;;;;;;4956916;28;20178;-87
2023/05/05 03:36:28;;;;;;;9.47;8.47;;;7.70;77.30;;;;;;4974254;28;20193;-88
2023/05/05 03:38:54;;;;;;;10.30;8.20;;;7.70;77.30;;;;;;4974169;28;20221;-88
2023/05/05 03:41:21;;;;;;;19.63;18.13;;;7.70;77.30;;;;;;4957266;28;20572;-88
2023/05/05 03:43:46;;;;;;;16.43;15.03;;;7.80;77.20;;;;;;4957548;28;20179;-87
2023/05/05 03:46:12;;;;;;;17.27;15.83;;;7.80;77.20;;;;;;4974441;28;20550;-87
2023/05/05 03:48:37;;;;;;;17.17;15.73;;;7.80;77.40;;;;;;4956942;28;20854;-88
2023/05/05 03:51:03;;;;;;;13.50;7.70;;;7.80;77.50;;;;;;4956664;28;20214;-88
2023/05/05 03:53:29;;;;;;;11.37;8.50;;;7.80;77.50;;;;;;4956744;28;20182;-87
2023/05/05 03:55:55;;;;;;;16.47;15.27;;;7.80;77.70;;;;;;4957092;28;20190;-87
2023/05/05 03:58:20;;;;;;;17.17;15.40;;;7.80;77.60;;;;;;4957047;28;20178;-88
2023/05/05 04:00:46;;;;;;;16.13;14.63;;;7.80;77.80;;;;;;4957022;28;20202;-87
2023/05/05 04:03:11;;;;;;;15.13;13.83;;;7.70;78.30;;;;;;4956717;28;20526;-87
2023/05/05 04:05:37;;;;;;;12.90;8.40;;;7.70;78.60;;;;;;4957049;28;20234;-88
2023/05/05 04:08:02;;;;;;;8.80;7.47;;;7.70;78.80;;;;;;4958197;28;20209;-88
2023/05/05 04:10:31;;;;;;;10.23;7.70;;;7.70;78.90;;;;;;4960557;28;20680;-88
2023/05/05 04:12:57;;;;;;;15.73;14.33;;;7.80;79.10;;;;;;4977698;28;20186;-87
2023/05/05 04:15:22;;;;;;;16.90;15.10;;;7.80;79.10;;;;;;4960577;28;20174;-88
2023/05/05 04:17:48;;;;;;;15.80;14.47;;;7.80;79.30;;;;;;4977450;28;20233;-88
2023/05/05 04:20:13;;;;;;;13.17;11.10;;;7.80;79.40;;;;;;4961191;28;20248;-88
2023/05/05 04:22:39;;;;;;;16.73;8.00;;;7.80;79.70;;;;;;4960025;28;20167;-88
2023/05/05 04:25:05;;;;;;;13.93;8.83;;;7.80;79.60;;;;;;4959953;28;20183;-88
2023/05/05 04:27:31;;;;;;;19.07;15.17;;;7.80;79.80;;;;;;4960043;28;20174;-87
2023/05/05 04:29:56;;;;;;;16.40;14.50;;;7.80;80.30;;;;;;4960975;28;20353;-88
2023/05/05 04:32:22;;;;;;;17.37;15.03;;;7.80;80.40;;;;;;4960440;28;20175;-87
2023/05/05 04:34:47;;;;;;;16.00;14.37;;;7.90;80.40;;;;;;4959954;28;20182;-88
2023/05/05 04:37:13;;;;;;;13.93;9.10;;;7.80;80.70;;;;;;4977078;28;20273;-88
2023/05/05 04:39:39;;;;;;;11.97;8.50;;;7.80;80.90;;;;;;4959932;28;20232;-88
2023/05/05 04:42:05;;;;;;;21.63;14.13;;;7.80;81.10;;;;;;4959950;28;20183;-88
2023/05/05 04:44:32;;;;;;;14.37;13.07;;;7.90;81.20;;;;;;4977358;28;20226;-88
2023/05/05 04:46:59;;;;;;;15.93;14.27;;;7.90;81.20;;;;;;4959926;28;20237;-88
2023/05/05 04:49:25;;;;;;;15.33;13.73;;;8.00;81.30;;;;;;4961695;28;20207;-88
2023/05/05 04:51:50;;;;;;;12.10;8.93;;;8.00;81.30;;;;;;4959476;28;20265;-87
2023/05/05 04:54:16;;;;;;;16.93;9.70;;;8.10;81.40;;;;;;4959679;28;20170;-88
2023/05/05 04:56:41;;;;;;;22.03;14.97;;;8.20;81.30;;;;;;4976910;28;20642;-88
2023/05/05 04:59:07;;;;;;;17.60;14.20;;;8.30;81.20;;;;;;4976842;28;20240;-88
2023/05/05 05:01:32;;;;;;;17.93;14.07;;;8.30;81.10;;;;;;4959416;28;20207;-88
2023/05/05 05:03:58;;;;;;;18.20;13.27;;;8.30;81.20;;;;;;4959535;28;20190;-87
2023/05/05 05:06:23;;;;;;;11.93;8.67;;;8.30;81.00;;;;;;4959476;28;20193;-88
2023/05/05 05:08:49;;;;;;;9.30;7.23;;;8.40;81.20;;;;;;4976815;28;20289;-88
2023/05/05 05:11:14;;;;;;;20.50;9.57;;;8.30;81.00;;;;;;4976725;28;20281;-88
2023/05/05 05:13:40;;;;;;;16.70;15.00;;;8.40;81.50;;;;;;4976846;28;20174;-88
2023/05/05 05:16:06;;;;;;;16.47;14.93;;;8.30;81.50;;;;;;4959207;28;20282;-88
2023/05/05 05:18:32;;;;;;;16.97;13.03;;;8.30;81.50;;;;;;4976400;28;20174;-88
2023/05/05 05:20:57;;;;;;;20.70;14.77;;;8.30;81.70;;;;;;4959879;28;20226;-89
2023/05/05 05:23:23;;;;;;;12.20;8.70;;;8.30;82.00;;;;;;4959297;28;20536;-88
2023/05/05 05:25:48;;;;;;;17.53;9.23;;;8.30;81.90;;;;;;4976339;28;20527;-88
2023/05/05 05:28:14;;;;;;;15.77;14.37;;;8.30;82.10;;;;;;4976294;28;20206;-88
2023/05/05 05:30:39;;;;;;;17.60;14.90;;;8.30;82.10;;;;;;4976308;28;20190;-88
2023/05/05 05:33:05;;;;;;;19.60;16.70;;;8.30;82.10;;;;;;4959104;28;20175;-88
2023/05/05 05:35:31;;;;;;;21.97;17.40;;;8.50;82.00;;;;;;4976115;28;20248;-88
2023/05/05 05:37:56;;;;;;;12.43;9.03;;;8.60;81.90;;;;;;4958714;28;20262;-88
2023/05/05 05:40:22;;;;;;;12.73;8.73;;;8.70;82.00;;;;;;4976118;28;20198;-88
2023/05/05 05:42:47;;;;;;;18.33;15.50;;;8.80;81.50;;;;;;4976302;28;20310;-88
2023/05/05 05:45:13;;;;;;;20.57;16.90;;;8.80;81.20;;;;;;4958666;28;20226;-88
2023/05/05 05:47:39;;;;;;;19.50;16.03;;;8.90;81.10;;;;;;4975988;28;20259;-86
2023/05/05 05:50:05;;;;;;;18.97;15.17;;;9.00;81.20;;;;;;4975904;28;20201;-88
2023/05/05 05:52:31;;;;;;;17.97;14.43;;;9.10;80.80;;;;;;4959369;28;20167;-88
2023/05/05 05:54:56;;;;;;;17.00;10.93;;;9.20;80.70;;;;;;4958793;28;20185;-88
2023/05/05 05:57:23;;;;;;;14.27;10.80;;;9.30;80.50;;;;;;4958455;28;20200;-88
2023/05/05 05:59:49;;;;;;;17.93;16.00;;;9.40;80.40;;;;;;4958225;28;20673;-88
2023/05/05 06:02:15;;;;;;;16.70;15.00;;;9.50;79.80;;;;;;4958220;28;20182;-88
2023/05/05 06:04:41;;;;;;;15.03;13.73;;;9.50;79.50;;;;;;4958154;28;20179;-88
2023/05/05 06:07:06;;;;;;;11.83;10.13;;;9.70;79.50;;;;;;4958616;28;20726;-88
2023/05/05 06:09:32;;;;;;;12.30;9.23;;;9.90;79.60;;;;;;4975443;28;20206;-88
2023/05/05 06:11:57;;;;;;;16.57;9.20;;;9.90;79.20;;;;;;4958021;28;20630;-88
2023/05/05 06:14:23;;;;;;;10.57;8.33;;;9.80;79.10;;;;;;4958054;28;20186;-89
2023/05/05 06:16:49;;;;;;;9.47;8.77;;;9.60;79.30;;;;;;4975284;28;20649;-88
2023/05/05 06:19:14;;;;;;;19.87;10.90;;;9.50;79.00;;;;;;4958725;28;20186;-88
2023/05/05 06:21:40;;;;;;;15.50;14.20;;;9.40;79.50;;;;;;4958012;28;20281;-88
2023/05/05 06:24:06;;;;;;;20.73;14.67;;;9.50;79.90;;;;;;4957850;28;20217;-88
2023/05/05 06:26:31;;;;;;;12.70;9.10;;;9.70;79.20;;;;;;4975316;28;20649;-87
2023/05/05 06:28:57;;;;;;;11.23;8.30;;;9.90;79.50;;;;;;4958153;28;20555;-88
2023/05/05 06:31:22;;;;;;;16.77;15.03;;;10.00;78.70;;;;;;4974866;28;20716;-88
2023/05/05 06:33:48;;;;;;;18.70;16.07;;;10.20;78.00;;;;;;4957846;28;20660;-89
2023/05/05 06:36:13;;;;;;;17.10;15.27;;;10.30;78.50;;;;;;4957813;28;20241;-89
2023/05/05 06:38:39;;;;;;;16.20;14.63;;;10.30;77.50;;;;;;4975277;28;20598;-88
2023/05/05 06:41:04;;;;;;;14.10;8.20;;;10.40;77.80;;;;;;4975094;28;20626;-87
2023/05/05 06:43:30;;;;;;;8.17;7.07;;;10.50;76.70;;;;;;4975119;28;20645;-87
2023/05/05 06:45:55;;;;;;;16.80;15.20;;;10.60;76.60;;;;;;4957714;28;20202;-87
2023/05/05 06:48:21;;;;;;;16.80;15.27;;;10.80;77.30;;;;;;4957875;28;20209;-87
2023/05/05 06:50:46;;;;;;;18.50;16.70;;;10.80;75.60;;;;;;4957580;28;20210;-87
2023/05/05 06:53:12;;;;;;;17.37;15.87;;;10.60;75.40;;;;;;4958145;28;20190;-88
2023/05/05 06:55:38;;;;;;;18.83;16.90;;;10.60;76.30;;;;;;4957885;28;20189;-88
2023/05/05 06:58:04;;;;;;;9.07;8.27;;;10.70;76.50;;;;;;4957524;28;20680;-88
2023/05/05 07:00:30;;;;;;;7.43;6.73;;;10.70;76.40;;;;;;4974910;28;20194;-88
2023/05/05 07:02:56;;;;;;;19.27;16.43;;;10.70;75.50;;;;;;4974922;28;20185;-90
2023/05/05 07:05:21;;;;;;;15.17;13.70;;;10.80;76.50;;;;;;4958544;28;20552;-88
2023/05/05 07:07:51;;;;;;;16.93;15.40;;;10.80;76.10;;;;;;4957323;28;20179;-89
2023/05/05 07:10:17;;;;;;;18.77;16.87;;;10.80;76.50;;;;;;4957738;28;20198;-89
2023/05/05 07:12:42;;;;;;;12.17;9.13;;;10.80;76.00;;;;;;4974592;28;20717;-89
2023/05/05 07:15:08;;;;;;;11.03;9.23;;;10.90;76.50;;;;;;4974866;28;20700;-90
2023/05/05 07:17:34;;;;;;;17.43;13.57;;;10.90;75.10;;;;;;4957352;28;20730;-89
2023/05/05 07:19:59;;;;;;;17.93;16.13;;;11.00;75.80;;;;;;4974484;28;20205;-89
2023/05/05 07:22:25;;;;;;;23.53;16.10;;;11.10;75.90;;;;;;4974835;28;20189;-89
2023/05/05 07:24:52;;;;;;;16.20;14.80;;;11.10;76.00;;;;;;4974713;28;20174;-88
2023/05/05 07:27:18;;;;;;;16.20;14.50;;;11.10;75.00;;;;;;4957340;28;20174;-89
2023/05/05 07:29:43;;;;;;;12.40;8.37;;;11.20;75.20;;;;;;4974283;28;20202;-89
2023/05/05 07:32:09;;;;;;;11.73;8.37;;;11.20;74.70;;;;;;4974953;28;20171;-89
2023/05/05 07:34:36;;;;;;;18.30;16.47;;;11.30;75.10;;;;;;4957133;28;20261;-89
2023/05/05 07:37:05;;;;;;;19.20;15.80;;;11.40;75.30;;;;;;4957134;28;20171;-90
2023/05/05 07:39:31;;;;;;;19.57;16.03;;;11.40;74.90;;;;;;4974412;28;20193;-89
2023/05/05 07:41:57;;;;;;;16.03;14.53;;;11.50;75.90;;;;;;4974552;28;20677;-89
2023/05/05 07:44:23;;;;;;;16.13;9.07;;;11.60;75.40;;;;;;4961100;28;20264;-88
2023/05/05 07:46:48;;;;;;;15.43;8.53;;;11.70;74.80;;;;;;4978103;28;20171;-88
2023/05/05 07:49:14;;;;;;;16.63;14.87;;;11.80;74.90;;;;;;4978231;28;20230;-89
2023/05/05 07:51:40;;;;;;;21.23;16.10;;;11.80;74.60;;;;;;4960588;28;20588;-88
2023/05/05 07:54:05;;;;;;;18.50;16.37;;;11.90;75.00;;;;;;4960745;28;20179;-89
2023/05/05 07:56:31;;;;;;;18.53;16.50;;;11.90;75.30;;;;;;4978218;28;20179;-89
2023/05/05 07:58:56;;;;;;;18.17;16.30;;;11.90;74.20;;;;;;4960649;28;20524;-88
2023/05/05 08:01:22;;;;;;;15.17;8.90;;;11.90;74.10;;;;;;4960806;28;20567;-89
2023/05/05 08:03:47;;;;;;;12.20;8.60;;;12.00;74.90;;;;;;4977914;28;20171;-89
2023/05/05 08:06:20;;;;;;;15.17;13.77;;;12.10;74.30;;;;;;4960706;28;20190;-90
2023/05/05 08:08:49;;;;;;;16.60;14.97;;;12.00;73.20;;;;;;4960797;28;20266;-89
2023/05/05 08:11:15;;;;;;;18.03;15.03;;;12.20;74.60;;;;;;4960411;28;20226;-89
2023/05/05 08:13:44;;;;;;;16.77;15.17;;;12.30;73.70;;;;;;4978157;28;20179;-89
2023/05/05 08:16:13;;;;;;;16.80;9.30;;;12.30;72.50;;;;;;4977748;28;20645;-90
2023/05/05 08:18:38;;;;;;;13.80;9.63;;;12.30;72.90;;;;;;4960686;28;20189;-89
2023/05/05 08:21:05;;;;;;;25.23;15.30;;;12.30;73.10;;;;;;4977619;28;20600;-88
2023/05/05 08:23:31;;;;;;;16.50;15.00;;;12.40;72.50;;;;;;4977449;28;20553;-89
2023/05/05 08:25:57;;;;;;;19.17;16.53;;;12.40;72.40;;;;;;4960067;28;20187;-88
2023/05/05 08:28:22;;;;;;;17.33;14.63;;;12.40;72.00;;;;;;4960120;28;20206;-90
2023/05/05 08:30:50;;;;;;;12.17;9.57;;;12.70;72.70;;;;;;4960641;28;20673;-87
2023/05/05 08:33:16;;;;;;;11.47;9.63;;;12.80;71.90;;;;;;4977336;28;20186;-88
2023/05/05 08:35:42;;;;;;;17.27;10.37;;;12.80;72.60;;;;;;4977255;28;20599;-88
2023/05/05 08:38:08;;;;;;;21.37;16.03;;;12.90;72.50;;;;;;4977246;28;20187;-89
2023/05/05 08:40:36;;;;;;;16.37;14.40;;;13.10;71.90;;;;;;4977218;28;20249;-89
2023/05/05 08:43:02;;;;;;;19.17;17.10;;;13.30;71.00;;;;;;4977101;28;20182;-88
2023/05/05 08:45:28;;;;;;;17.20;14.77;;;13.30;70.20;;;;;;4977145;28;20556;-88
2023/05/05 08:47:56;;;;;;;12.77;9.87;;;13.30;70.40;;;;;;4977571;28;20179;-88
2023/05/05 08:50:25;;;;;;;13.23;11.50;;;13.50;71.00;;;;;;4959525;28;20218;-88
2023/05/05 08:53:00;;;;;;;17.40;15.67;;;13.30;70.40;;;;;;4977239;28;20178;-88
2023/05/05 08:55:32;;;;;;;14.60;13.50;;;13.30;70.90;;;;;;4959399;28;20178;-89
2023/05/05 08:58:01;;;;;;;22.37;15.20;;;13.20;70.60;;;;;;4959612;28;20174;-88
2023/05/05 09:00:27;;;;;;;11.10;10.03;;;13.20;70.30;;;;;;4976910;28;20183;-89
2023/05/05 09:02:57;;;;;;;13.40;9.80;;;13.30;70.90;;;;;;4959554;28;20185;-90
2023/05/05 09:05:23;;;;;;;17.57;10.50;;;13.20;71.00;;;;;;4959551;28;20645;-89
2023/05/05 09:07:50;;;;;;;19.30;14.63;;;13.10;70.60;;;;;;4960294;28;20181;-89
2023/05/05 09:10:16;;;;;;;14.67;13.50;;;13.00;70.10;;;;;;4959793;28;20257;-89
2023/05/05 09:12:42;;;;;;;16.53;14.50;;;13.00;70.80;;;;;;4959516;28;20175;-89
2023/05/05 09:15:08;;;;;;;13.87;9.47;;;13.10;71.70;;;;;;4960291;28;20178;-89
2023/05/05 09:17:34;;;;;;;10.60;9.63;;;13.30;72.50;;;;;;4959501;28;20175;-88
2023/05/05 09:20:07;;;;;;;11.60;10.43;;;13.60;71.30;;;;;;4959735;28;20269;-89
2023/05/05 09:22:37;;;;;;;17.57;16.07;;;14.10;69.20;;;;;;4959806;28;20178;-89
2023/05/05 09:25:10;;;;;;;18.53;16.40;;;14.20;69.40;;;;;;4959364;28;20174;-89
2023/05/05 09:27:39;;;;;;;25.03;16.37;;;14.20;69.10;;;;;;4976735;28;20167;-89
2023/05/05 09:30:05;;;;;;;13.10;11.27;;;14.30;68.90;;;;;;4976526;28;20207;-89
2023/05/05 09:32:46;;;;;;;13.07;11.27;;;14.40;68.60;;;;;;4959461;28;20179;-89
2023/05/05 09:35:12;;;;;;;20.33;18.47;;;14.30;66.50;;;;;;4960477;28;20193;-89
2023/05/05 09:37:37;;;;;;;18.13;16.73;;;14.00;66.60;;;;;;4959263;28;20211;-89
2023/05/05 09:40:04;;;;;;;19.73;17.67;;;13.90;66.30;;;;;;4959252;28;20756;-88
2023/05/05 09:42:30;;;;;;;20.00;18.30;;;13.80;66.10;;;;;;4959515;28;20213;-89
2023/05/05 09:44:56;;;;;;;13.77;12.60;;;13.80;66.20;;;;;;4959820;28;20198;-89
2023/05/05 09:47:34;;;;;;;13.80;12.57;;;13.70;66.70;;;;;;4959397;28;20190;-89
2023/05/05 09:50:00;;;;;;;19.17;17.47;;;13.70;66.10;;;;;;4960832;28;20211;-90
2023/05/05 09:52:25;;;;;;;20.33;18.50;;;13.70;66.90;;;;;;4977159;28;20167;-89
2023/05/05 09:54:55;;;;;;;20.10;18.37;;;13.80;67.20;;;;;;4960612;28;20170;-89
2023/05/05 09:57:28;;;;;;;21.97;17.70;;;13.80;68.10;;;;;;4976759;28;20202;-89
2023/05/05 09:59:56;;;;;;;20.27;13.10;;;13.80;67.80;;;;;;4959618;28;20217;-88
2023/05/05 10:02:38;;;;;;;14.67;13.17;;;13.60;66.00;;;;;;4979518;28;20637;-89
2023/05/05 10:05:10;;;;;;;22.07;19.93;;;13.60;66.70;;;;;;4958393;28;20265;-89
2023/05/05 10:07:37;;;;;;;20.73;18.80;;;13.60;66.40;;;;;;4958265;28;20186;-89
2023/05/05 10:10:05;;;;;;;20.50;18.37;;;13.50;67.40;;;;;;4975634;28;20207;-89
2023/05/05 10:12:34;;;;;;;15.60;13.60;;;13.60;67.10;;;;;;4942778;28;20193;-90
2023/05/05 10:15:01;;;;;;;18.30;12.90;;;13.60;67.40;;;;;;4958609;28;20179;-90
2023/05/05 10:17:30;;;;;;;13.70;12.30;;;13.60;69.00;;;;;;4958699;28;20181;-89
2023/05/05 10:19:59;;;;;;;19.80;17.80;;;13.60;68.10;;;;;;4958142;28;20206;-89
2023/05/05 10:22:27;;;;;;;20.47;18.63;;;13.70;67.60;;;;;;4958469;28;20198;-89
2023/05/05 10:25:01;;;;;;;22.17;19.93;;;13.70;66.80;;;;;;4958360;28;20232;-90
2023/05/05 10:27:28;;;;;;;20.30;13.57;;;13.70;67.00;;;;;;4981546;28;20163;-90
2023/05/05 10:30:05;;;;;;;14.33;12.93;;;13.70;67.40;;;;;;4963805;28;20210;-89
2023/05/05 10:32:37;;;;;;;20.67;18.77;;;13.70;67.00;;;;;;4980766;28;20167;-89
2023/05/05 10:35:06;;;;;;;20.80;18.93;;;13.70;66.10;;;;;;4960193;28;20218;-88
2023/05/05 10:37:32;;;;;;;19.63;18.13;;;13.80;66.80;;;;;;4977203;28;20221;-90
2023/05/05 10:40:00;;;;;;;20.50;18.80;;;13.90;66.80;;;;;;4976267;28;20198;-90
2023/05/05 10:42:26;;;;;;;14.23;12.97;;;14.00;66.80;;;;;;4959121;28;20186;-88
2023/05/05 10:44:52;;;;;;;15.50;14.00;;;14.10;67.10;;;;;;4975208;28;20597;-88
2023/05/05 10:47:19;;;;;;;19.90;18.10;;;14.10;66.00;;;;;;4975799;28;20174;-88
2023/05/05 10:50:01;;;;;;;20.20;18.00;;;14.30;66.80;;;;;;4974934;28;20685;-88
2023/05/05 10:52:43;;;;;;;19.97;18.17;;;14.40;66.90;;;;;;4975347;28;20226;-88
2023/05/05 10:55:26;;;;;;;17.47;13.00;;;14.50;67.50;;;;;;4976348;28;20656;-89
2023/05/05 10:57:52;;;;;;;16.50;13.60;;;14.60;65.40;;;;;;4961477;28;20175;-90
2023/05/05 11:00:37;;;;;;;19.20;17.50;;;14.60;65.30;;;;;;4958868;28;20198;-90
2023/05/05 11:03:21;;;;;;;20.87;18.70;;;14.70;66.80;;;;;;4960349;28;20182;-89
2023/05/05 11:06:07;;;;;;;20.10;18.13;;;14.60;65.00;;;;;;4976674;28;20171;-88
2023/05/05 11:08:35;;;;;;;20.57;18.87;;;14.70;65.70;;;;;;4959340;28;20627;-89
2023/05/05 11:11:01;;;;;;;17.63;13.40;;;14.60;66.40;;;;;;4957970;28;20194;-87
2023/05/05 11:13:27;;;;;;;14.53;13.27;;;14.80;66.60;;;;;;4957511;28;20175;-87
2023/05/05 11:15:54;;;;;;;14.82;13.38;;;14.90;65.80;;;;;;4974871;28;20229;-88
2023/05/05 11:18:39;;;;;;;15.10;13.80;;;15.00;66.50;;;;;;4956997;28;20665;-88
2023/05/05 11:21:14;;;;;;;16.60;14.93;;;15.10;65.60;;;;;;4957377;28;20203;-89
2023/05/05 11:23:44;;;;;;;14.75;13.55;;;15.10;65.30;;;;;;4959483;28;20217;-89
2023/05/05 11:26:11;;;;;;;14.40;13.30;;;15.10;64.90;;;;;;4957253;28;20206;-88
2023/05/05 11:29:09;;;;;;;16.92;14.55;;;15.20;64.00;;;;;;4975098;28;20218;-89
2023/05/05 11:31:34;;;;;;;17.30;15.63;;;15.20;65.10;;;;;;4932793;28;20203;-88
2023/05/05 11:34:27;;;;;;;16.93;15.20;;;15.30;66.00;;;;;;4975183;28;20175;-87
2023/05/05 11:37:01;;;;;;;14.77;13.57;;;15.30;63.80;;;;;;4974783;28;20187;-88
2023/05/05 11:39:49;;;;;;;15.30;13.85;;;15.30;63.90;;;;;;4957449;28;20214;-89
2023/05/05 11:42:24;;;;;;;15.38;14.07;;;15.30;63.20;;;;;;4974504;28;20577;-88
2023/05/05 11:44:50;;;;;;;19.27;16.05;;;15.30;64.80;;;;;;4957545;28;20693;-88
2023/05/05 11:47:15;;;;;;;20.08;18.30;;;15.30;65.30;;;;;;4957536;28;20282;-88
2023/05/05 11:49:41;;;;;;;20.25;18.40;;;15.50;66.30;;;;;;4975010;28;20700;-90
2023/05/05 11:52:13;;;;;;;16.70;14.85;;;15.50;63.30;;;;;;4974477;28;20187;-89
2023/05/05 11:54:49;;;;;;;15.25;13.77;;;15.70;65.60;;;;;;4975405;28;20182;-90
2023/05/05 11:57:19;;;;;;;20.30;17.33;;;16.00;64.90;;;;;;4959360;28;20167;-90
2023/05/05 12:00:06;;;;;;;19.45;17.88;;;16.10;64.50;;;;;;4965156;28;20206;-90
2023/05/05 12:02:32;;;;;;;20.25;18.55;;;16.30;63.00;;;;;;4957545;28;20194;-89
2023/05/05 12:04:58;;;;;;;16.88;13.65;;;16.30;59.50;;;;;;4975677;28;20253;-90
2023/05/05 12:07:27;;;;;;;20.08;14.73;;;16.40;61.90;;;;;;4957535;28;20183;-89
2023/05/05 12:09:52;;;;;;;21.70;19.70;;;16.50;62.40;;;;;;4975000;28;20226;-90
2023/05/05 12:12:19;;;;;;;22.45;20.60;;;16.70;61.30;;;;;;4959070;28;20178;-89
2023/05/05 12:14:51;;;;;;;22.08;19.80;;;16.70;59.70;;;;;;4959015;28;20269;-89
2023/05/05 12:17:22;;;;;;;15.52;13.93;;;16.80;60.10;;;;;;4959472;28;20194;-89
2023/05/05 12:19:53;;;;;;;14.68;13.32;;;16.80;58.40;;;;;;4960012;28;20251;-89
2023/05/05 12:22:24;;;;;;;20.60;19.05;;;16.80;58.30;;;;;;4958016;28;20175;-90
2023/05/05 12:24:58;;;;;;;21.58;19.63;;;16.80;58.80;;;;;;4958061;28;20265;-87
2023/05/05 12:27:25;;;;;;;21.05;19.35;;;16.80;59.00;;;;;;4975068;28;20171;-89
2023/05/05 12:29:51;;;;;;;16.70;13.75;;;16.80;58.70;;;;;;4976299;28;20265;-87
2023/05/05 12:32:21;;;;;;;14.07;12.77;;;17.10;59.30;;;;;;4961453;28;20176;-87
2023/05/05 12:34:48;;;;;;;21.30;19.35;;;17.40;60.40;;;;;;4977300;28;20183;-88
2023/05/05 12:37:15;;;;;;;21.10;19.63;;;17.70;57.80;;;;;;4959782;28;20175;-88
2023/05/05 12:39:41;;;;;;;16.42;14.15;;;17.60;57.00;;;;;;4959820;28;20186;-87